createdAt,value
2023-05-10T00:02:11.744Z,4.57
2023-05-10T00:04:38.917Z,7.63
2023-05-10T00:07:05.590Z,7.93
2023-05-10T00:09:33.682Z,5.27
2023-05-10T00:12:00.715Z,8.40
2023-05-10T00:14:27.464Z,6.07
2023-05-10T00:16:54.248Z,4.30
2023-05-10T00:19:20.921Z,7.57
2023-05-10T00:21:47.822Z,5.53
2023-05-10T00:24:14.706Z,4.57
2023-05-10T00:26:43.153Z,8.90
2023-05-10T00:29:09.938Z,4.70
2023-05-10T00:31:36.608Z,6.83
2023-05-10T00:34:03.320Z,7.20
2023-05-10T00:36:30.220Z,4.63
2023-05-10T00:38:56.879Z,7.60
2023-05-10T00:41:23.860Z,10.97
2023-05-10T00:43:50.588Z,7.37
2023-05-10T00:46:17.604Z,8.27
2023-05-10T00:48:45.738Z,6.17
2023-05-10T00:51:12.568Z,8.43
2023-05-10T00:53:39.448Z,5.30
2023-05-10T00:56:06.462Z,6.57
2023-05-10T00:58:33.441Z,6.27
2023-05-10T01:01:01.532Z,7.50
2023-05-10T01:03:29.011Z,4.93
2023-05-10T01:05:56.281Z,7.47
2023-05-10T01:08:26.819Z,6.50
2023-05-10T01:10:53.653Z,8.73
2023-05-10T01:13:38.356Z,4.50
2023-05-10T01:16:05.993Z,7.03
2023-05-10T01:18:36.211Z,7.13
2023-05-10T01:21:23.589Z,4.97
2023-05-10T01:23:53.333Z,5.73
2023-05-10T01:26:31.930Z,10.43
2023-05-10T01:29:31.726Z,4.80
2023-05-10T01:32:07.460Z,3.73
2023-05-10T01:34:46.551Z,7.23
2023-05-10T01:37:21.142Z,7.37
2023-05-10T01:40:01.292Z,4.07
2023-05-10T01:42:35.294Z,7.53
2023-05-10T01:45:20.090Z,6.80
2023-05-10T01:48:02.281Z,4.53
2023-05-10T01:50:31.622Z,10.60
2023-05-10T01:53:01.203Z,4.23
2023-05-10T01:55:31.906Z,4.80
2023-05-10T01:58:14.093Z,12.43
2023-05-10T02:00:44.991Z,6.70
2023-05-10T02:03:17.062Z,5.70
2023-05-10T02:05:46.927Z,4.03
2023-05-10T02:08:15.765Z,5.63
2023-05-10T02:10:49.774Z,6.13
2023-05-10T02:13:18.110Z,5.17
2023-05-10T02:15:49.737Z,14.63
2023-05-10T02:18:17.824Z,6.37
2023-05-10T02:20:47.262Z,5.33
2023-05-10T02:23:17.391Z,7.00
2023-05-10T02:25:45.771Z,6.87
2023-05-10T02:28:14.103Z,5.87
2023-05-10T02:30:41.376Z,4.03
2023-05-10T02:33:08.899Z,5.67
2023-05-10T02:35:36.251Z,7.23
2023-05-10T02:38:03.697Z,5.40
2023-05-10T02:40:31.344Z,6.63
2023-05-10T02:43:00.253Z,13.03
2023-05-10T02:45:31.304Z,5.33
2023-05-10T02:47:59.225Z,5.70
2023-05-10T02:50:29.493Z,6.10
2023-05-10T02:53:03.035Z,9.13
2023-05-10T02:55:36.490Z,6.17
2023-05-10T02:58:04.150Z,4.20
2023-05-10T03:00:30.968Z,10.73
2023-05-10T03:03:01.713Z,8.80
2023-05-10T03:05:28.553Z,6.80
2023-05-10T03:07:55.789Z,4.83
2023-05-10T03:10:28.632Z,4.57
2023-05-10T03:13:12.837Z,7.83
2023-05-10T03:16:00.241Z,8.27
2023-05-10T03:18:38.141Z,5.70
2023-05-10T03:21:09.982Z,4.47
2023-05-10T03:23:44.370Z,5.57
2023-05-10T03:26:18.253Z,6.70
2023-05-10T03:28:45.398Z,8.60
2023-05-10T03:31:13.474Z,8.27
2023-05-10T03:33:50.736Z,9.97
2023-05-10T03:36:17.804Z,4.60
2023-05-10T03:38:44.543Z,5.80
2023-05-10T03:41:12.114Z,6.03
2023-05-10T03:43:39.507Z,8.67
2023-05-10T03:46:06.626Z,6.97
2023-05-10T03:48:34.176Z,6.20
2023-05-10T03:51:00.987Z,7.33
2023-05-10T03:53:27.980Z,7.97
2023-05-10T03:55:54.708Z,4.47
2023-05-10T03:58:24.175Z,6.57
2023-05-10T04:00:52.315Z,5.13
2023-05-10T04:03:19.214Z,5.20
2023-05-10T04:05:46.020Z,7.80
2023-05-10T04:08:17.413Z,5.03
2023-05-10T04:10:44.500Z,4.50
2023-05-10T04:13:12.143Z,6.20
2023-05-10T04:15:38.888Z,10.30
2023-05-10T04:18:08.003Z,9.83
2023-05-10T04:20:35.495Z,8.20
2023-05-10T04:23:02.152Z,6.50
2023-05-10T04:25:28.824Z,6.93
2023-05-10T04:27:55.461Z,5.87
2023-05-10T04:30:22.665Z,8.90
2023-05-10T04:32:49.351Z,5.07
2023-05-10T04:35:16.142Z,8.57
2023-05-10T04:37:42.818Z,6.87
2023-05-10T04:40:10.233Z,7.60
2023-05-10T04:42:36.844Z,7.00
2023-05-10T04:45:03.900Z,9.07
2023-05-10T04:47:30.619Z,4.93
2023-05-10T04:49:57.255Z,4.60
2023-05-10T04:52:23.873Z,5.50
2023-05-10T04:54:50.608Z,7.33
2023-05-10T04:57:17.253Z,5.07
2023-05-10T04:59:43.925Z,5.37
2023-05-10T05:02:10.692Z,8.00
2023-05-10T05:04:37.460Z,7.90
2023-05-10T05:07:04.071Z,8.30
2023-05-10T05:09:32.910Z,8.20
2023-05-10T05:11:59.650Z,7.07
2023-05-10T05:14:26.347Z,5.50
2023-05-10T05:16:53.678Z,5.97
2023-05-10T05:19:20.418Z,8.30
2023-05-10T05:21:47.086Z,7.37
2023-05-10T05:24:13.894Z,5.40
2023-05-10T05:26:40.616Z,9.10
2023-05-10T05:29:09.400Z,7.23
2023-05-10T05:31:36.359Z,5.73
2023-05-10T05:34:03.121Z,5.43
2023-05-10T05:36:29.906Z,4.50
2023-05-10T05:38:56.555Z,7.70
2023-05-10T05:41:23.515Z,8.07
2023-05-10T05:43:50.189Z,6.97
2023-05-10T05:46:16.988Z,9.00
2023-05-10T05:48:43.648Z,7.63
2023-05-10T05:51:11.781Z,8.13
2023-05-10T05:53:38.414Z,7.27
2023-05-10T05:56:08.226Z,7.80
2023-05-10T05:58:34.858Z,6.27
2023-05-10T06:01:01.607Z,6.30
2023-05-10T06:03:28.371Z,7.17
2023-05-10T06:05:55.109Z,6.00
2023-05-10T06:08:22.078Z,8.30
2023-05-10T06:10:48.918Z,5.87
2023-05-10T06:13:15.654Z,9.93
2023-05-10T06:15:42.419Z,6.27
2023-05-10T06:18:09.239Z,7.70
2023-05-10T06:20:36.052Z,6.10
2023-05-10T06:23:02.756Z,7.33
2023-05-10T06:25:29.411Z,7.93
2023-05-10T06:27:58.912Z,6.30
2023-05-10T06:30:29.456Z,4.77
2023-05-10T06:32:57.224Z,5.83
2023-05-10T06:35:24.825Z,7.87
2023-05-10T06:37:52.156Z,5.67
2023-05-10T06:40:19.258Z,8.03
2023-05-10T06:42:47.314Z,6.57
2023-05-10T06:45:15.704Z,4.17
2023-05-10T06:47:43.056Z,6.67
2023-05-10T06:50:10.654Z,7.57
2023-05-10T06:52:37.294Z,8.60
2023-05-10T06:55:07.456Z,5.20
2023-05-10T06:57:34.315Z,5.70
2023-05-10T07:00:01.242Z,7.20
2023-05-10T07:02:28.343Z,11.83
2023-05-10T07:04:55.207Z,6.20
2023-05-10T07:07:22.124Z,10.63
2023-05-10T07:09:49.931Z,10.67
2023-05-10T07:12:16.911Z,8.10
2023-05-10T07:14:43.728Z,8.73
2023-05-10T07:17:10.984Z,9.07
2023-05-10T07:19:37.855Z,4.40
2023-05-10T07:22:04.664Z,7.17
2023-05-10T07:24:32.326Z,6.97
2023-05-10T07:26:59.164Z,6.93
2023-05-10T07:29:26.015Z,5.07
2023-05-10T07:31:52.725Z,9.30
2023-05-10T07:34:19.452Z,6.97
2023-05-10T07:36:46.137Z,5.87
2023-05-10T07:39:16.446Z,6.80
2023-05-10T07:41:51.437Z,5.33
2023-05-10T07:44:20.088Z,6.93
2023-05-10T07:46:47.513Z,5.73
2023-05-10T07:49:14.360Z,7.10
2023-05-10T07:51:41.973Z,7.50
2023-05-10T07:54:08.734Z,4.73
2023-05-10T07:56:35.593Z,9.40
2023-05-10T07:59:09.260Z,5.17
2023-05-10T08:01:36.941Z,8.07
2023-05-10T08:04:03.661Z,10.73
2023-05-10T08:06:31.156Z,8.07
2023-05-10T08:08:58.416Z,7.00
2023-05-10T08:11:25.198Z,10.57
2023-05-10T08:13:52.712Z,6.93
2023-05-10T08:16:19.585Z,9.33
2023-05-10T08:18:48.028Z,10.67
2023-05-10T08:21:15.733Z,6.00
2023-05-10T08:23:44.552Z,4.83
2023-05-10T08:26:11.734Z,7.87
2023-05-10T08:28:38.585Z,8.30
2023-05-10T08:31:06.215Z,9.57
2023-05-10T08:33:33.117Z,13.70
2023-05-10T08:35:59.939Z,5.33
2023-05-10T08:38:26.973Z,4.97
2023-05-10T08:40:57.651Z,6.73
2023-05-10T08:43:29.434Z,6.57
2023-05-10T08:45:59.909Z,6.13
2023-05-10T08:48:29.919Z,9.30
2023-05-10T08:51:00.754Z,4.80
2023-05-10T08:53:28.345Z,7.67
2023-05-10T08:55:56.602Z,6.20
2023-05-10T08:58:23.441Z,7.63
2023-05-10T09:00:53.654Z,8.00
2023-05-10T09:03:20.554Z,5.60
2023-05-10T09:05:48.023Z,8.07
2023-05-10T09:08:17.335Z,4.80
2023-05-10T09:10:49.286Z,8.97
2023-05-10T09:13:18.733Z,8.80
2023-05-10T09:15:46.136Z,8.20
2023-05-10T09:18:13.923Z,7.40
2023-05-10T09:20:41.576Z,5.30
2023-05-10T09:23:08.412Z,5.77
2023-05-10T09:25:35.186Z,10.30
2023-05-10T09:28:01.932Z,6.43
2023-05-10T09:30:32.499Z,7.83
2023-05-10T09:33:00.696Z,9.70
2023-05-10T09:35:32.486Z,11.07
2023-05-10T09:38:02.115Z,10.13
2023-05-10T09:40:31.120Z,6.10
2023-05-10T09:43:11.808Z,8.70
2023-05-10T09:45:39.285Z,6.80
2023-05-10T09:48:06.390Z,10.88
2023-05-10T09:50:33.202Z,6.47
2023-05-10T09:53:01.841Z,5.87
2023-05-10T09:55:41.059Z,11.00
2023-05-10T09:58:11.487Z,6.72
2023-05-10T10:00:40.247Z,6.35
2023-05-10T10:03:07.809Z,14.47
2023-05-10T10:05:36.612Z,8.30
2023-05-10T10:08:05.651Z,6.53
2023-05-10T10:10:33.930Z,5.00
2023-05-10T10:13:01.068Z,8.55
2023-05-10T10:15:28.063Z,5.60
2023-05-10T10:17:55.382Z,7.95
2023-05-10T10:20:23.731Z,9.57
2023-05-10T10:22:50.742Z,7.35
2023-05-10T10:25:19.854Z,7.13
2023-05-10T10:27:52.642Z,7.90
2023-05-10T10:30:43.283Z,5.68
2023-05-10T10:33:29.240Z,8.02
2023-05-10T10:35:59.123Z,7.03
2023-05-10T10:38:26.075Z,6.60
2023-05-10T10:41:27.729Z,8.60
2023-05-10T10:44:31.937Z,6.70
2023-05-10T10:47:12.845Z,7.22
2023-05-10T10:49:39.974Z,6.20
2023-05-10T10:52:30.167Z,10.27
2023-05-10T10:55:06.339Z,5.10
2023-05-10T10:58:01.084Z,7.28
2023-05-10T11:00:32.884Z,11.13
2023-05-10T11:03:15.711Z,7.43
2023-05-10T11:05:52.971Z,7.22
2023-05-10T11:08:33.709Z,7.18
2023-05-10T11:11:01.659Z,7.25
2023-05-10T11:13:34.115Z,7.18
2023-05-10T11:16:12.361Z,6.38
2023-05-10T11:18:39.345Z,6.32
2023-05-10T11:21:11.445Z,6.55
2023-05-10T11:23:41.307Z,8.25
2023-05-10T11:26:12.594Z,5.80
2023-05-10T11:28:46.959Z,9.88
2023-05-10T11:31:18.740Z,9.82
2023-05-10T11:33:48.336Z,6.20
2023-05-10T11:36:19.772Z,9.98
2023-05-10T11:38:47.505Z,8.10
2023-05-10T11:41:14.945Z,7.85
2023-05-10T11:43:42.686Z,10.38
2023-05-10T11:46:12.356Z,7.68
2023-05-10T11:48:44.247Z,5.90
2023-05-10T11:51:12.113Z,8.93
2023-05-10T11:53:41.066Z,9.20
2023-05-10T11:56:12.270Z,10.10
2023-05-10T11:58:40.239Z,6.75
2023-05-10T12:01:10.336Z,7.30
2023-05-10T12:03:37.806Z,7.53
2023-05-10T12:06:05.270Z,7.88
2023-05-10T12:08:32.007Z,7.68
2023-05-10T12:11:11.443Z,12.18
2023-05-10T12:13:42.698Z,8.32
2023-05-10T12:16:21.712Z,9.43
2023-05-10T12:18:53.602Z,9.95
2023-05-10T12:21:23.642Z,11.85
2023-05-10T12:23:55.074Z,11.52
2023-05-10T12:26:27.305Z,11.13
2023-05-10T12:28:54.782Z,13.77
2023-05-10T12:31:24.572Z,9.47
2023-05-10T12:33:51.309Z,14.17
2023-05-10T12:36:24.135Z,15.47
2023-05-10T12:38:52.753Z,15.90
2023-05-10T12:41:19.736Z,13.50
2023-05-10T12:43:47.401Z,11.80
2023-05-10T12:46:17.624Z,13.17
2023-05-10T12:48:45.478Z,14.43
2023-05-10T12:51:18.221Z,16.00
2023-05-10T12:53:48.747Z,15.67
2023-05-10T12:56:16.313Z,16.63
2023-05-10T12:58:43.025Z,13.47
2023-05-10T13:01:09.896Z,18.70
2023-05-10T13:03:36.573Z,12.73
2023-05-10T13:06:03.408Z,15.43
2023-05-10T13:08:34.308Z,15.03
2023-05-10T13:11:02.002Z,14.83
2023-05-10T13:13:28.679Z,15.80
2023-05-10T13:15:55.529Z,17.23
2023-05-10T13:18:22.444Z,18.27
2023-05-10T13:20:52.334Z,14.57
2023-05-10T13:23:18.998Z,15.53
2023-05-10T13:25:48.653Z,15.87
2023-05-10T13:28:15.376Z,19.97
2023-05-10T13:30:41.989Z,13.73
2023-05-10T13:33:08.667Z,13.10
2023-05-10T13:35:35.443Z,17.17
2023-05-10T13:38:02.227Z,16.27
2023-05-10T13:40:29.270Z,18.43
2023-05-10T13:42:55.916Z,16.50
2023-05-10T13:45:22.727Z,16.53
2023-05-10T13:47:53.178Z,14.50
2023-05-10T13:50:20.110Z,15.90
2023-05-10T13:52:46.836Z,16.33
2023-05-10T13:55:14.219Z,14.67
2023-05-10T13:57:40.932Z,12.27
2023-05-10T14:00:12.574Z,17.33
2023-05-10T14:02:39.353Z,15.67
2023-05-10T14:05:06.753Z,14.87
2023-05-10T14:07:33.414Z,16.07
2023-05-10T14:10:00.068Z,15.07
2023-05-10T14:12:26.837Z,15.87
2023-05-10T14:14:53.618Z,13.90
2023-05-10T14:17:20.541Z,15.97
2023-05-10T14:19:47.154Z,13.70
2023-05-10T14:22:13.816Z,14.60
2023-05-10T14:24:40.628Z,14.90
2023-05-10T14:27:08.050Z,15.90
2023-05-10T14:29:34.760Z,16.97
2023-05-10T14:32:01.662Z,15.90
2023-05-10T14:34:28.378Z,15.77
2023-05-10T14:36:55.215Z,16.13
2023-05-10T14:39:22.253Z,13.47
2023-05-10T14:41:49.102Z,12.63
2023-05-10T14:44:16.532Z,14.53
2023-05-10T14:46:43.536Z,12.00
2023-05-10T14:49:10.223Z,12.90
2023-05-10T14:51:37.890Z,11.17
2023-05-10T14:54:04.721Z,11.33
2023-05-10T14:56:31.430Z,11.20
2023-05-10T14:58:58.103Z,10.07
2023-05-10T15:01:25.453Z,11.13
2023-05-10T15:03:52.783Z,10.17
2023-05-10T15:06:26.304Z,9.70
2023-05-10T15:08:53.008Z,10.03
2023-05-10T15:11:19.678Z,13.63
2023-05-10T15:13:46.332Z,12.53
2023-05-10T15:16:16.301Z,9.67
2023-05-10T15:18:43.064Z,8.60
2023-05-10T15:21:10.471Z,13.20
2023-05-10T15:23:37.213Z,8.83
2023-05-10T15:26:04.011Z,8.97
2023-05-10T15:28:31.905Z,8.27
2023-05-10T15:30:59.226Z,9.27
2023-05-10T15:33:26.436Z,7.80
2023-05-10T15:35:54.592Z,6.53
2023-05-10T15:38:21.267Z,7.73
2023-05-10T15:40:47.953Z,5.93
2023-05-10T15:43:15.026Z,7.57
2023-05-10T15:45:41.717Z,7.20
2023-05-10T15:48:08.404Z,8.73
2023-05-10T15:50:35.149Z,7.50
2023-05-10T15:53:03.521Z,6.00
2023-05-10T15:55:30.192Z,7.03
2023-05-10T15:57:56.972Z,7.47
2023-05-10T16:00:23.671Z,9.13
2023-05-10T16:02:54.138Z,6.47
2023-05-10T16:05:21.109Z,10.63
2023-05-10T16:07:47.809Z,5.73
2023-05-10T16:10:14.479Z,6.50
2023-05-10T16:12:41.403Z,8.63
2023-05-10T16:15:09.227Z,5.75
2023-05-10T16:17:35.957Z,7.07
2023-05-10T16:20:02.849Z,8.07
2023-05-10T16:22:30.116Z,7.03
2023-05-10T16:24:59.947Z,5.67
2023-05-10T16:27:28.729Z,6.70
2023-05-10T16:29:55.464Z,6.03
2023-05-10T16:32:22.362Z,7.83
2023-05-10T16:34:50.231Z,6.10
2023-05-10T16:37:17.002Z,6.83
2023-05-10T16:39:44.057Z,5.50
2023-05-10T16:42:10.994Z,5.20
2023-05-10T16:44:37.682Z,4.90
2023-05-10T16:47:04.519Z,4.90
2023-05-10T16:49:31.529Z,4.97
2023-05-10T16:51:58.261Z,6.73
2023-05-10T16:54:24.972Z,5.23
2023-05-10T16:56:51.838Z,6.07
2023-05-10T16:59:18.490Z,4.60
2023-05-10T17:01:46.121Z,5.37
2023-05-10T17:04:14.312Z,5.83
2023-05-10T17:06:41.489Z,6.13
2023-05-10T17:09:08.184Z,6.20
2023-05-10T17:11:34.829Z,7.10
2023-05-10T17:14:01.876Z,5.37
2023-05-10T17:16:29.865Z,4.57
2023-05-10T17:18:56.784Z,4.13
2023-05-10T17:21:23.524Z,4.40
2023-05-10T17:23:50.326Z,5.93
2023-05-10T17:26:17.276Z,4.20
2023-05-10T17:28:44.001Z,4.23
2023-05-10T17:31:10.742Z,7.77
2023-05-10T17:33:37.648Z,7.57
2023-05-10T17:36:04.367Z,7.83
2023-05-10T17:38:31.032Z,8.93
2023-05-10T17:40:57.664Z,8.63
2023-05-10T17:43:26.045Z,7.90
2023-05-10T17:45:52.989Z,6.70
2023-05-10T17:48:19.841Z,6.60
2023-05-10T17:50:46.543Z,8.63
2023-05-10T17:53:13.222Z,7.20
2023-05-10T17:55:41.224Z,8.40
2023-05-10T17:58:08.472Z,10.23
2023-05-10T18:00:35.946Z,7.70
2023-05-10T18:03:03.602Z,7.80
2023-05-10T18:05:30.705Z,13.10
2023-05-10T18:07:57.531Z,8.47
2023-05-10T18:10:24.801Z,7.90
2023-05-10T18:12:52.416Z,7.60
2023-05-10T18:15:19.154Z,8.20
2023-05-10T18:17:45.921Z,6.87
2023-05-10T18:20:13.091Z,8.07
2023-05-10T18:22:39.959Z,7.40
2023-05-10T18:25:07.178Z,8.40
2023-05-10T18:27:34.374Z,9.07
2023-05-10T18:30:01.129Z,10.93
2023-05-10T18:32:28.074Z,9.13
2023-05-10T18:34:55.875Z,9.00
2023-05-10T18:37:22.784Z,11.50
2023-05-10T18:39:50.584Z,11.57
2023-05-10T18:42:17.492Z,12.33
2023-05-10T18:44:44.108Z,11.87
2023-05-10T18:47:10.726Z,12.43
2023-05-10T18:49:37.401Z,11.47
2023-05-10T18:52:04.016Z,12.90
2023-05-10T18:54:30.765Z,13.03
2023-05-10T18:56:58.610Z,17.23
2023-05-10T18:59:25.684Z,17.03
2023-05-10T19:01:53.700Z,15.63
2023-05-10T19:04:21.865Z,15.47
2023-05-10T19:06:48.828Z,16.73
2023-05-10T19:09:15.702Z,17.03
2023-05-10T19:11:43.289Z,19.07
2023-05-10T19:14:10.222Z,19.20
2023-05-10T19:16:37.049Z,19.00
2023-05-10T19:19:03.996Z,15.93
2023-05-10T19:21:31.149Z,15.17
2023-05-10T19:23:58.227Z,13.13
2023-05-10T19:26:24.997Z,15.53
2023-05-10T19:28:52.599Z,16.33
2023-05-10T19:31:20.419Z,15.07
2023-05-10T19:33:47.271Z,16.33
2023-05-10T19:36:13.965Z,17.33
2023-05-10T19:38:40.743Z,16.03
2023-05-10T19:41:07.480Z,16.53
2023-05-10T19:43:39.847Z,18.17
2023-05-10T19:46:06.764Z,16.90
2023-05-10T19:48:33.524Z,15.60
2023-05-10T19:51:02.387Z,18.53
2023-05-10T19:53:29.560Z,19.10
2023-05-10T19:55:56.530Z,19.23
2023-05-10T19:58:23.619Z,18.83
2023-05-10T20:00:50.461Z,20.40
2023-05-10T20:03:17.155Z,20.13
2023-05-10T20:05:43.851Z,21.00
2023-05-10T20:08:10.609Z,21.00
2023-05-10T20:10:37.426Z,21.37
2023-05-10T20:13:04.208Z,20.97
2023-05-10T20:15:30.942Z,24.80
2023-05-10T20:17:57.713Z,22.03
2023-05-10T20:20:24.504Z,22.00
2023-05-10T20:22:51.394Z,21.37
2023-05-10T20:25:18.912Z,24.50
2023-05-10T20:27:45.636Z,21.33
2023-05-10T20:30:12.792Z,19.43
2023-05-10T20:32:39.632Z,19.50
2023-05-10T20:35:07.188Z,20.60
2023-05-10T20:37:34.171Z,18.23
2023-05-10T20:40:01.126Z,19.40
2023-05-10T20:42:27.807Z,16.07
2023-05-10T20:44:56.681Z,18.17
2023-05-10T20:47:23.521Z,16.67
2023-05-10T20:49:50.281Z,17.80
2023-05-10T20:52:17.322Z,16.70
2023-05-10T20:54:43.964Z,20.03
2023-05-10T20:57:12.825Z,16.07
2023-05-10T20:59:39.582Z,17.03
2023-05-10T21:02:06.806Z,17.33
2023-05-10T21:04:33.462Z,16.53
2023-05-10T21:07:00.220Z,16.10
2023-05-10T21:09:26.924Z,19.27
2023-05-10T21:11:53.652Z,19.07
2023-05-10T21:14:20.813Z,15.23
2023-05-10T21:16:47.512Z,16.90
2023-05-10T21:19:14.120Z,17.60
2023-05-10T21:21:40.790Z,17.50
2023-05-10T21:24:07.770Z,17.47
2023-05-10T21:26:34.759Z,19.37
2023-05-10T21:29:01.649Z,20.47
2023-05-10T21:31:28.664Z,19.77
2023-05-10T21:33:55.441Z,18.17
2023-05-10T21:36:22.198Z,18.87
2023-05-10T21:38:50.476Z,21.17
2023-05-10T21:41:17.812Z,19.87
2023-05-10T21:43:44.552Z,18.03
2023-05-10T21:46:13.391Z,17.30
2023-05-10T21:48:40.191Z,18.70
2023-05-10T21:51:07.138Z,19.93
2023-05-10T21:53:33.771Z,22.13
2023-05-10T21:56:00.605Z,19.70
2023-05-10T21:58:27.673Z,16.60
2023-05-10T22:00:54.646Z,14.43
2023-05-10T22:03:21.863Z,12.70
2023-05-10T22:05:48.549Z,12.27
2023-05-10T22:08:15.201Z,12.00
2023-05-10T22:10:41.898Z,14.27
2023-05-10T22:13:08.637Z,14.03
2023-05-10T22:15:36.668Z,12.67
2023-05-10T22:18:03.601Z,13.67
2023-05-10T22:20:30.240Z,10.00
2023-05-10T22:22:56.922Z,12.37
2023-05-10T22:25:23.616Z,10.37
2023-05-10T22:27:50.341Z,12.90
2023-05-10T22:30:17.457Z,13.23
2023-05-10T22:32:44.487Z,12.00
2023-05-10T22:35:11.185Z,11.70
2023-05-10T22:37:37.870Z,12.97
2023-05-10T22:40:05.242Z,11.43
2023-05-10T22:42:32.069Z,12.80
2023-05-10T22:44:58.923Z,12.53
2023-05-10T22:47:25.929Z,17.17
2023-05-10T22:49:53.169Z,15.93
2023-05-10T22:52:19.868Z,18.23
2023-05-10T22:54:46.594Z,18.77
2023-05-10T22:57:13.330Z,14.37
2023-05-10T22:59:40.024Z,17.47
2023-05-10T23:02:06.768Z,18.13
2023-05-10T23:04:35.854Z,15.70
2023-05-10T23:07:02.651Z,19.80
2023-05-10T23:09:29.308Z,14.53
2023-05-10T23:11:56.159Z,16.73
2023-05-10T23:14:23.190Z,15.37
2023-05-10T23:16:55.168Z,14.17
2023-05-10T23:19:21.963Z,14.97
2023-05-10T23:21:48.998Z,18.87
2023-05-10T23:24:15.792Z,17.50
2023-05-10T23:26:45.169Z,17.40
2023-05-10T23:29:12.333Z,14.80
2023-05-10T23:31:45.236Z,16.07
2023-05-10T23:34:12.495Z,12.37
2023-05-10T23:36:39.358Z,15.87
2023-05-10T23:39:06.626Z,13.17
2023-05-10T23:41:33.264Z,12.80
2023-05-10T23:44:01.432Z,17.97
2023-05-10T23:46:28.803Z,16.77
2023-05-10T23:48:55.383Z,18.40
2023-05-10T23:51:24.424Z,18.67
2023-05-10T23:53:51.049Z,16.07
2023-05-10T23:56:17.999Z,14.93
2023-05-10T23:58:46.235Z,17.17
